Time;durP1;ratioP1;P1;durP2;ratioP2;P2;SDS_P1;SDS_P2;PMS_P1;PMS_P2;Temp;Humidity;BMP_temperature;BMP_pressure;BME280_temperature;BME280_humidity;BME280_pressure;Samples;Min_cycle;Max_cycle;Signal;HPM_P1;HPM_P2
2022/08/20 00:00:55;;;;;;;4.10;1.23;;;14.60;78.20;;;;;;4992748;28;20455;-76
2022/08/20 00:03:27;;;;;;;2.78;1.05;;;14.50;77.30;;;;;;4992891;28;20445;-77
2022/08/20 00:06:13;;;;;;;3.70;1.10;;;14.50;77.10;;;;;;4992901;28;20397;-78
2022/08/20 00:08:42;;;;;;;3.33;1.20;;;14.50;74.80;;;;;;4994900;28;20412;-77
2022/08/20 00:11:12;;;;;;;4.22;1.20;;;14.50;74.60;;;;;;4996299;28;20429;-77
2022/08/20 00:13:44;;;;;;;3.95;1.05;;;14.60;76.50;;;;;;4980140;28;20866;-75
2022/08/20 00:16:13;;;;;;;3.40;1.00;;;14.70;75.20;;;;;;4993485;28;20788;-78
2022/08/20 00:18:41;;;;;;;2.53;1.20;;;14.80;72.40;;;;;;4994157;28;20381;-78
2022/08/20 00:21:12;;;;;;;3.85;1.20;;;14.70;73.80;;;;;;4980122;28;20389;-75
2022/08/20 00:23:41;;;;;;;4.55;1.05;;;14.70;75.20;;;;;;4992641;28;20423;-77
2022/08/20 00:26:10;;;;;;;3.00;1.20;;;14.70;73.60;;;;;;4993265;28;20392;-76
2022/08/20 00:28:39;;;;;;;4.82;1.20;;;14.80;74.10;;;;;;4994698;28;20377;-78
2022/08/20 00:31:09;;;;;;;4.00;1.30;;;14.70;75.90;;;;;;4977993;28;20786;-77
2022/08/20 00:33:37;;;;;;;2.92;1.10;;;14.90;75.70;;;;;;4978495;28;20385;-75
2022/08/20 00:36:09;;;;;;;2.42;0.90;;;14.90;74.10;;;;;;4995159;28;20423;-77
2022/08/20 00:38:38;;;;;;;4.90;1.23;;;14.90;73.90;;;;;;4995428;28;20392;-76
2022/08/20 00:41:07;;;;;;;4.70;1.30;;;14.90;71.80;;;;;;4995059;28;20415;-77
2022/08/20 00:43:51;;;;;;;3.15;1.30;;;14.90;73.40;;;;;;4994507;28;20388;-78
2022/08/20 00:46:27;;;;;;;3.03;1.40;;;15.10;74.60;;;;;;4994396;28;20939;-77
2022/08/20 00:48:57;;;;;;;4.32;1.40;;;15.10;73.80;;;;;;4993690;28;20389;-76
2022/08/20 00:51:32;;;;;;;2.85;1.08;;;15.10;72.20;;;;;;4995069;28;20397;-78
2022/08/20 00:54:09;;;;;;;3.13;1.27;;;15.00;72.40;;;;;;4994382;28;20393;-77
2022/08/20 00:56:38;;;;;;;3.78;1.45;;;14.90;74.00;;;;;;4994763;28;20752;-77
2022/08/20 00:59:10;;;;;;;7.07;1.30;;;14.80;74.10;;;;;;4995194;28;20825;-78
2022/08/20 01:01:39;;;;;;;5.30;1.30;;;14.90;73.80;;;;;;4993496;28;20377;-76
2022/08/20 01:04:06;;;;;;;3.30;1.20;;;14.80;73.40;;;;;;4995920;28;20381;-78
2022/08/20 01:06:37;;;;;;;3.60;1.25;;;14.90;73.40;;;;;;4978452;28;20392;-78
2022/08/20 01:09:06;;;;;;;5.93;1.30;;;14.90;73.80;;;;;;4994907;28;20385;-78
2022/08/20 01:11:35;;;;;;;5.65;1.42;;;14.90;73.30;;;;;;4993677;28;20429;-77
2022/08/20 01:14:37;;;;;;;4.32;1.60;;;14.70;75.20;;;;;;4976813;28;20435;-78
2022/08/20 01:17:12;;;;;;;4.07;1.42;;;14.60;75.90;;;;;;4994437;28;20435;-76
2022/08/20 01:19:43;;;;;;;4.75;1.55;;;14.60;76.40;;;;;;4982957;28;20417;-76
2022/08/20 01:25:12;;;;;;;4.20;1.40;;;14.50;77.10;;;;;;4994263;28;20467;-77
2022/08/20 01:27:40;;;;;;;3.88;1.63;;;14.50;77.60;;;;;;4993996;28;20412;-78
2022/08/20 01:30:08;;;;;;;3.75;1.73;;;14.40;78.10;;;;;;4991522;28;20461;-78
2022/08/20 01:32:35;;;;;;;4.27;1.83;;;14.30;78.10;;;;;;4994559;28;20416;-76
2022/08/20 01:35:03;;;;;;;4.13;1.58;;;14.30;79.00;;;;;;4994109;28;20451;-76
2022/08/20 01:37:30;;;;;;;5.05;1.60;;;14.30;80.30;;;;;;4994011;28;20397;-76
2022/08/20 01:39:57;;;;;;;4.55;1.60;;;14.30;80.50;;;;;;4993817;28;20387;-79
2022/08/20 01:42:36;;;;;;;6.00;1.58;;;14.30;81.10;;;;;;4977004;28;20416;-79
2022/08/20 01:45:05;;;;;;;5.25;1.80;;;14.40;81.90;;;;;;4980551;28;20431;-77
2022/08/20 01:47:32;;;;;;;8.07;1.60;;;14.50;82.30;;;;;;4993598;28;20887;-77
2022/08/20 01:50:17;;;;;;;4.82;1.60;;;14.60;82.00;;;;;;4993346;28;20482;-76
2022/08/20 01:52:56;;;;;;;6.50;1.58;;;14.70;82.70;;;;;;4993424;28;20405;-77
2022/08/20 01:55:26;;;;;;;7.53;1.90;;;14.80;82.10;;;;;;4994211;28;20377;-79
2022/08/20 01:57:53;;;;;;;4.35;1.50;;;15.00;80.70;;;;;;4974802;28;20388;-77
2022/08/20 02:00:21;;;;;;;3.78;1.30;;;15.10;79.80;;;;;;4991343;28;20376;-78
2022/08/20 02:02:49;;;;;;;3.72;1.50;;;15.00;79.10;;;;;;4991088;28;20393;-76
2022/08/20 02:05:17;;;;;;;5.43;1.52;;;15.10;78.90;;;;;;4990559;28;20411;-76
2022/08/20 02:07:44;;;;;;;4.40;1.60;;;15.30;78.90;;;;;;4991410;28;20411;-76
2022/08/20 02:10:15;;;;;;;4.90;1.55;;;15.40;79.60;;;;;;4973269;28;20916;-76
2022/08/20 02:12:44;;;;;;;4.70;1.52;;;15.40;77.10;;;;;;4984394;28;20465;-76
2022/08/20 02:15:12;;;;;;;3.90;1.40;;;15.50;77.90;;;;;;4984326;28;20443;-77
2022/08/20 02:17:40;;;;;;;4.67;1.50;;;15.50;76.40;;;;;;4973187;28;21011;-76
2022/08/20 02:20:16;;;;;;;2.78;1.10;;;15.60;75.60;;;;;;4990590;28;20389;-78
2022/08/20 02:22:55;;;;;;;2.53;1.02;;;15.70;76.00;;;;;;4990716;28;20385;-76
2022/08/20 02:25:26;;;;;;;2.50;1.17;;;15.80;76.70;;;;;;4990549;28;20384;-77
2022/08/20 02:27:55;;;;;;;3.70;1.20;;;15.90;74.80;;;;;;4973806;28;20389;-77
2022/08/20 02:30:31;;;;;;;3.15;1.10;;;16.00;74.10;;;;;;4990847;28;20380;-76
2022/08/20 02:33:00;;;;;;;4.25;1.27;;;16.10;74.50;;;;;;4990534;28;20455;-76
2022/08/20 02:35:28;;;;;;;2.90;1.20;;;16.20;73.60;;;;;;4991775;28;20455;-78
2022/08/20 02:37:55;;;;;;;3.45;1.20;;;16.30;72.70;;;;;;4994765;28;20404;-79
2022/08/20 02:40:25;;;;;;;2.83;1.20;;;16.40;71.70;;;;;;4995850;28;20756;-76
2022/08/20 02:42:53;;;;;;;2.72;1.23;;;16.50;71.10;;;;;;4999036;28;20481;-75
2022/08/20 02:45:21;;;;;;;5.07;1.30;;;16.60;71.90;;;;;;4998705;28;20643;-76
2022/08/20 02:47:52;;;;;;;4.15;1.33;;;16.60;69.50;;;;;;4996943;28;20749;-76
2022/08/20 02:50:22;;;;;;;3.55;1.15;;;16.50;70.50;;;;;;4995225;28;20380;-76
2022/08/20 02:52:50;;;;;;;3.80;1.50;;;16.70;70.10;;;;;;4995585;28;20419;-76
2022/08/20 02:55:17;;;;;;;4.68;1.40;;;16.90;69.00;;;;;;4995559;28;20379;-75
2022/08/20 02:57:44;;;;;;;3.25;1.20;;;16.90;68.90;;;;;;4992187;28;20432;-77
2022/08/20 03:00:20;;;;;;;3.20;1.50;;;17.00;69.00;;;;;;4994541;28;20395;-77
2022/08/20 03:02:47;;;;;;;4.43;1.65;;;17.00;67.20;;;;;;4994862;28;20473;-78
2022/08/20 03:05:14;;;;;;;2.85;1.30;;;17.00;66.30;;;;;;4976219;28;20411;-80
2022/08/20 03:07:52;;;;;;;2.57;1.20;;;16.80;67.70;;;;;;4994444;28;20514;-81
2022/08/20 03:10:32;;;;;;;2.40;1.20;;;17.00;68.70;;;;;;4997496;28;20884;-80
2022/08/20 03:13:01;;;;;;;4.45;1.50;;;17.20;67.80;;;;;;4996966;28;20394;-85
2022/08/20 03:15:32;;;;;;;3.20;1.80;;;17.30;67.20;;;;;;5010436;28;20396;-80
2022/08/20 03:18:00;;;;;;;3.27;1.30;;;17.40;66.70;;;;;;5015390;28;20837;-79
2022/08/20 03:20:28;;;;;;;3.22;1.25;;;17.40;66.80;;;;;;5014048;28;20384;-80
2022/08/20 03:22:55;;;;;;;3.13;1.35;;;17.40;67.30;;;;;;5013071;28;20393;-78
2022/08/20 03:25:23;;;;;;;7.63;1.30;;;17.50;67.60;;;;;;5015139;28;20396;-79
2022/08/20 03:27:50;;;;;;;3.40;1.10;;;17.80;67.40;;;;;;4999817;28;20785;-78
2022/08/20 03:30:18;;;;;;;2.90;1.30;;;17.90;65.90;;;;;;5009656;28;20382;-75
2022/08/20 03:32:46;;;;;;;3.53;1.50;;;18.00;67.30;;;;;;4995931;28;20499;-77
2022/08/20 03:35:14;;;;;;;2.90;1.30;;;18.30;65.80;;;;;;4993468;28;20381;-77
2022/08/20 03:37:42;;;;;;;3.15;1.10;;;18.50;66.00;;;;;;4995079;28;20477;-77
2022/08/20 03:40:15;;;;;;;3.45;1.10;;;18.60;65.10;;;;;;4996110;28;20377;-76
2022/08/20 03:42:42;;;;;;;4.18;1.17;;;18.90;64.60;;;;;;4986803;28;20488;-77
2022/08/20 03:45:12;;;;;;;6.23;1.33;;;18.70;64.10;;;;;;4992874;28;20459;-77
2022/08/20 03:47:42;;;;;;;3.28;1.20;;;18.50;63.20;;;;;;4992346;28;20385;-79
2022/08/20 03:50:11;;;;;;;3.20;1.45;;;18.40;65.30;;;;;;4993240;28;20395;-77
2022/08/20 03:52:39;;;;;;;2.90;1.33;;;18.40;65.60;;;;;;4992980;28;20869;-77
2022/08/20 03:55:08;;;;;;;3.20;1.63;;;18.50;65.60;;;;;;4992534;28;20379;-77
2022/08/20 03:57:42;;;;;;;4.77;1.40;;;18.50;65.40;;;;;;4992941;28;20509;-78
2022/08/20 04:00:11;;;;;;;2.23;1.10;;;18.40;64.40;;;;;;4992507;28;20377;-78
2022/08/20 04:02:39;;;;;;;2.67;1.20;;;18.70;66.70;;;;;;4981429;28;20379;-78
2022/08/20 04:05:07;;;;;;;3.63;1.30;;;19.80;65.40;;;;;;4990952;28;20572;-77
2022/08/20 04:07:36;;;;;;;4.18;1.20;;;20.30;61.70;;;;;;4992649;28;20384;-77
2022/08/20 04:10:08;;;;;;;3.23;1.20;;;20.30;60.60;;;;;;4992480;28;20400;-79
2022/08/20 04:12:39;;;;;;;5.13;1.38;;;19.90;61.70;;;;;;4957975;28;20914;-77
2022/08/20 04:15:14;;;;;;;3.42;1.15;;;19.30;62.50;;;;;;4992544;28;20379;-78
2022/08/20 04:17:47;;;;;;;4.03;1.33;;;18.90;63.60;;;;;;4992534;28;20377;-77
2022/08/20 04:20:21;;;;;;;3.20;1.30;;;18.80;64.30;;;;;;4992446;28;20368;-77
2022/08/20 04:22:50;;;;;;;4.32;1.40;;;18.60;64.90;;;;;;4992522;28;20391;-77
2022/08/20 04:25:18;;;;;;;5.35;1.42;;;18.60;65.30;;;;;;4992530;28;20396;-78
2022/08/20 04:27:45;;;;;;;6.32;2.85;;;18.50;65.40;;;;;;4992665;28;20738;-78
2022/08/20 04:30:13;;;;;;;5.05;2.42;;;18.50;66.50;;;;;;4992302;28;20389;-77
2022/08/20 04:32:41;;;;;;;6.60;3.50;;;18.20;65.50;;;;;;4992380;28;20503;-78
2022/08/20 04:35:14;;;;;;;4.57;1.50;;;18.20;67.10;;;;;;4991987;28;20452;-78
2022/08/20 04:37:42;;;;;;;4.43;1.63;;;18.10;66.40;;;;;;4992131;28;20384;-77
2022/08/20 04:42:58;;;;;;;4.10;1.20;;;18.10;68.40;;;;;;4994912;28;20955;-77
2022/08/20 04:45:25;;;;;;;4.63;1.45;;;18.10;68.00;;;;;;5006693;28;20388;-76
2022/08/20 04:47:53;;;;;;;3.03;1.25;;;18.30;68.80;;;;;;5007245;28;20381;-76
2022/08/20 04:50:21;;;;;;;2.92;1.30;;;19.10;66.60;;;;;;5008645;28;20447;-76
2022/08/20 04:52:48;;;;;;;3.50;1.57;;;19.50;65.60;;;;;;4990118;28;20496;-77
2022/08/20 04:55:19;;;;;;;3.53;1.40;;;20.00;64.30;;;;;;4991577;28;20476;-77
2022/08/20 04:57:46;;;;;;;4.32;1.40;;;20.80;63.20;;;;;;4991299;28;20384;-77
2022/08/20 05:00:16;;;;;;;1.95;1.05;;;21.50;60.40;;;;;;4991948;28;20442;-77
2022/08/20 05:02:43;;;;;;;3.08;1.23;;;22.60;58.10;;;;;;4991952;28;20381;-78
2022/08/20 05:05:11;;;;;;;4.38;1.52;;;23.50;56.50;;;;;;4991501;28;20416;-77
2022/08/20 05:07:46;;;;;;;4.95;1.65;;;24.20;54.00;;;;;;4991865;28;20815;-78
2022/08/20 05:10:16;;;;;;;3.15;1.20;;;25.00;52.40;;;;;;4991361;28;20381;-77
2022/08/20 05:12:44;;;;;;;3.25;1.25;;;26.30;49.80;;;;;;4984615;28;20417;-77
2022/08/20 05:15:12;;;;;;;3.10;1.13;;;25.90;49.00;;;;;;4984609;28;20745;-79
2022/08/20 05:17:43;;;;;;;4.55;1.30;;;24.90;49.20;;;;;;4974224;28;20455;-78
2022/08/20 05:20:13;;;;;;;5.45;1.40;;;23.90;50.00;;;;;;4991357;28;20880;-77
2022/08/20 05:22:40;;;;;;;4.88;1.38;;;22.80;52.20;;;;;;4991376;28;20392;-77
2022/08/20 05:25:08;;;;;;;6.80;1.40;;;21.70;54.30;;;;;;4992649;28;20381;-77
2022/08/20 05:27:35;;;;;;;3.83;1.40;;;21.60;56.60;;;;;;4993465;28;20420;-78
2022/08/20 05:30:09;;;;;;;3.47;1.40;;;22.60;55.80;;;;;;4993772;28;20381;-77
2022/08/20 05:32:37;;;;;;;2.88;1.13;;;24.10;53.20;;;;;;4992065;28;20415;-77
2022/08/20 05:35:09;;;;;;;3.03;1.30;;;24.20;51.10;;;;;;4991243;28;20424;-77
2022/08/20 05:37:40;;;;;;;3.60;1.23;;;24.20;50.90;;;;;;4991237;28;20733;-78
2022/08/20 05:40:15;;;;;;;4.00;1.30;;;24.00;51.30;;;;;;4990765;28;20380;-77
2022/08/20 05:42:42;;;;;;;3.50;1.30;;;23.30;51.90;;;;;;4990938;28;20465;-77
2022/08/20 05:45:09;;;;;;;4.93;1.48;;;22.60;52.90;;;;;;4991048;28;20385;-78
2022/08/20 05:47:39;;;;;;;3.17;1.20;;;22.10;54.40;;;;;;4990867;28;20881;-77
2022/08/20 05:50:09;;;;;;;2.90;1.20;;;21.80;55.20;;;;;;4977993;28;20415;-77
2022/08/20 05:52:37;;;;;;;3.72;1.48;;;21.40;55.90;;;;;;4990611;28;20873;-77
2022/08/20 05:55:07;;;;;;;4.30;1.52;;;21.10;56.50;;;;;;4990694;28;20464;-78
2022/08/20 05:57:34;;;;;;;4.60;1.60;;;20.60;56.80;;;;;;4990766;28;20476;-77
2022/08/20 06:00:05;;;;;;;3.13;1.03;;;20.10;58.00;;;;;;4990548;28;20427;-77
2022/08/20 06:05:21;;;;;;;3.28;1.30;;;19.40;60.30;;;;;;4977085;28;21165;-77
2022/08/20 06:07:52;;;;;;;5.28;1.80;;;18.90;61.70;;;;;;4991223;28;20472;-77
2022/08/20 06:10:19;;;;;;;4.28;1.40;;;18.60;62.50;;;;;;4993151;28;20389;-76
2022/08/20 06:12:46;;;;;;;4.75;1.20;;;18.50;63.40;;;;;;4987917;28;20414;-77
2022/08/20 06:15:15;;;;;;;2.05;0.90;;;18.50;64.20;;;;;;4988182;28;20741;-77
2022/08/20 06:17:42;;;;;;;2.13;0.70;;;18.60;63.50;;;;;;4994510;28;20745;-80
2022/08/20 06:20:10;;;;;;;1.50;0.82;;;18.50;64.30;;;;;;4994787;28;20802;-78
2022/08/20 06:22:37;;;;;;;2.90;1.30;;;18.50;64.30;;;;;;4994458;28;20430;-76
2022/08/20 06:25:06;;;;;;;2.60;1.25;;;18.50;64.50;;;;;;4994849;28;20729;-76
2022/08/20 06:27:36;;;;;;;1.90;1.08;;;18.50;63.90;;;;;;4994348;28;21007;-75
2022/08/20 06:30:04;;;;;;;0.93;0.50;;;18.40;64.30;;;;;;4994169;28;20856;-76
2022/08/20 06:32:32;;;;;;;0.90;0.50;;;18.30;64.40;;;;;;4994193;28;20404;-79
2022/08/20 06:35:01;;;;;;;2.27;0.40;;;18.20;64.40;;;;;;4994550;28;20377;-76
2022/08/20 06:37:31;;;;;;;1.00;0.70;;;18.10;64.70;;;;;;4991309;28;20389;-77
2022/08/20 06:40:04;;;;;;;3.55;0.70;;;18.00;65.30;;;;;;4994372;28;20848;-77
2022/08/20 06:42:32;;;;;;;2.13;0.50;;;18.00;66.10;;;;;;4994064;28;20388;-77
2022/08/20 06:44:59;;;;;;;0.95;0.38;;;17.80;66.10;;;;;;4994262;28;20380;-77
2022/08/20 06:47:26;;;;;;;1.30;0.50;;;17.80;67.10;;;;;;4994388;28;20493;-76
2022/08/20 06:49:53;;;;;;;0.52;0.43;;;17.70;67.10;;;;;;4993776;28;20726;-76
2022/08/20 06:52:20;;;;;;;2.10;0.52;;;17.70;67.30;;;;;;4994098;28;20412;-77
2022/08/20 06:54:47;;;;;;;3.25;0.88;;;17.70;67.60;;;;;;4994114;28;20868;-76
2022/08/20 06:57:16;;;;;;;1.92;0.80;;;17.70;67.70;;;;;;4993795;28;20876;-77
2022/08/20 06:59:43;;;;;;;2.83;0.70;;;17.60;68.00;;;;;;4993876;28;20380;-77
2022/08/20 07:02:10;;;;;;;4.53;0.80;;;17.50;68.40;;;;;;4994208;28;20385;-77
2022/08/20 07:04:37;;;;;;;2.00;0.73;;;17.40;69.00;;;;;;4993651;28;20396;-77
2022/08/20 07:07:04;;;;;;;0.60;0.50;;;17.30;69.90;;;;;;4980571;28;20507;-76
2022/08/20 07:09:31;;;;;;;1.95;0.50;;;17.10;70.90;;;;;;4993829;28;20381;-76
2022/08/20 07:11:58;;;;;;;2.58;0.40;;;17.00;72.10;;;;;;4993090;28;20415;-77
2022/08/20 07:14:25;;;;;;;0.30;0.30;;;16.70;71.80;;;;;;4980837;28;20378;-77
2022/08/20 07:16:53;;;;;;;1.27;0.47;;;16.60;72.10;;;;;;4993705;28;20414;-76
2022/08/20 07:19:20;;;;;;;0.73;0.50;;;16.40;72.60;;;;;;4993470;28;20403;-77
2022/08/20 07:21:48;;;;;;;0.65;0.60;;;16.30;73.10;;;;;;4989742;28;20943;-77
2022/08/20 07:24:15;;;;;;;1.15;0.50;;;16.10;74.40;;;;;;4993362;28;20392;-78
2022/08/20 07:26:42;;;;;;;0.85;0.40;;;16.00;75.30;;;;;;4993463;28;20476;-76
2022/08/20 07:29:09;;;;;;;0.50;0.50;;;15.80;76.40;;;;;;4993300;28;20880;-76
2022/08/20 07:34:21;;;;;;;0.85;0.60;;;15.60;78.70;;;;;;4993325;28;20384;-76
2022/08/20 07:36:49;;;;;;;3.50;3.20;;;15.50;80.40;;;;;;4993093;28;20463;-76
2022/08/20 07:39:16;;;;;;;2.05;1.08;;;15.30;81.60;;;;;;4993416;28;20480;-76
2022/08/20 07:41:43;;;;;;;1.17;0.80;;;15.20;82.90;;;;;;4993092;28;20409;-76
2022/08/20 07:44:11;;;;;;;1.67;0.80;;;15.10;83.60;;;;;;4993523;28;21175;-75
2022/08/20 07:46:38;;;;;;;0.70;0.60;;;15.10;84.30;;;;;;4993130;28;20418;-77
2022/08/20 07:49:08;;;;;;;0.80;0.80;;;15.00;83.90;;;;;;4993526;28;20392;-76
2022/08/20 07:51:36;;;;;;;1.10;1.05;;;15.20;83.80;;;;;;4992940;28;20769;-78
2022/08/20 07:54:04;;;;;;;1.48;0.80;;;15.30;83.80;;;;;;4993062;28;20381;-76
2022/08/20 07:56:31;;;;;;;6.18;5.13;;;15.20;84.30;;;;;;4992794;28;20393;-77
2022/08/20 07:59:00;;;;;;;6.03;5.43;;;15.10;85.40;;;;;;4993014;28;20425;-76
2022/08/20 08:01:30;;;;;;;1.38;1.10;;;15.00;86.30;;;;;;4992590;28;20388;-76
2022/08/20 08:03:59;;;;;;;2.90;2.35;;;14.90;86.70;;;;;;4992389;28;20377;-76
2022/08/20 08:06:30;;;;;;;1.98;1.38;;;14.90;86.40;;;;;;4992573;28;20399;-76
2022/08/20 08:09:17;;;;;;;3.03;2.50;;;14.80;87.20;;;;;;4992803;28;20373;-76
2022/08/20 08:11:49;;;;;;;2.55;2.35;;;14.80;87.60;;;;;;4992294;28;20404;-75
2022/08/20 08:14:25;;;;;;;2.92;2.30;;;14.70;88.20;;;;;;4978596;28;20407;-75
2022/08/20 08:17:01;;;;;;;2.63;2.42;;;14.70;89.40;;;;;;4992555;28;20384;-76
2022/08/20 08:19:36;;;;;;;2.45;2.25;;;14.70;89.60;;;;;;4992689;28;20463;-75
2022/08/20 08:22:05;;;;;;;2.38;2.17;;;14.60;90.40;;;;;;4992587;28;20801;-76
2022/08/20 08:24:32;;;;;;;0.90;0.75;;;14.60;90.90;;;;;;4992283;28;20744;-77
2022/08/20 08:26:59;;;;;;;0.80;0.50;;;14.60;90.70;;;;;;4992145;28;20464;-77
2022/08/20 08:29:26;;;;;;;1.02;0.60;;;14.80;90.20;;;;;;4992245;28;20732;-78
2022/08/20 08:31:53;;;;;;;1.40;0.70;;;14.90;90.00;;;;;;4992176;28;20393;-77
2022/08/20 08:34:22;;;;;;;0.70;0.70;;;14.90;89.80;;;;;;4992202;28;20412;-76
2022/08/20 08:36:50;;;;;;;2.03;1.10;;;14.90;89.80;;;;;;4992089;28;20455;-77
2022/08/20 08:39:17;;;;;;;1.77;1.10;;;14.90;90.00;;;;;;4992151;28;20408;-75
2022/08/20 08:41:48;;;;;;;0.80;0.80;;;14.80;90.30;;;;;;4992088;28;20412;-75
2022/08/20 08:44:23;;;;;;;0.80;0.50;;;14.80;90.30;;;;;;4991855;28;20380;-76
2022/08/20 08:47:12;;;;;;;1.20;0.60;;;14.70;90.30;;;;;;4992162;28;20469;-75
2022/08/20 08:49:40;;;;;;;0.35;0.35;;;14.60;90.60;;;;;;4991575;28;20384;-78
2022/08/20 08:52:31;;;;;;;1.10;0.60;;;14.50;90.90;;;;;;4992072;28;20415;-76
2022/08/20 08:55:02;;;;;;;1.35;0.63;;;14.50;91.10;;;;;;4991943;28;20884;-75
2022/08/20 08:57:30;;;;;;;0.57;0.57;;;14.30;91.60;;;;;;4970524;28;20480;-77
2022/08/20 09:00:20;;;;;;;0.85;0.85;;;14.20;92.30;;;;;;4974343;28;20852;-76
2022/08/20 09:03:06;;;;;;;2.65;2.10;;;14.10;92.80;;;;;;4992447;28;20435;-77
2022/08/20 09:05:51;;;;;;;1.42;1.30;;;14.00;93.40;;;;;;4985413;28;20987;-76
2022/08/20 09:08:42;;;;;;;1.38;0.70;;;13.90;93.90;;;;;;4996154;28;20736;-76
2022/08/20 09:11:09;;;;;;;0.73;0.73;;;13.90;94.00;;;;;;4990163;28;20447;-78
2022/08/20 09:13:37;;;;;;;1.58;0.75;;;13.90;94.40;;;;;;4978330;28;20397;-76
2022/08/20 09:16:04;;;;;;;1.00;0.70;;;13.80;94.90;;;;;;4978802;28;20382;-75
2022/08/20 09:18:31;;;;;;;0.80;0.60;;;13.60;95.20;;;;;;4991791;28;20388;-76
2022/08/20 09:20:58;;;;;;;5.47;4.75;;;13.50;95.70;;;;;;4991510;28;20381;-75
2022/08/20 09:23:25;;;;;;;1.63;0.75;;;13.40;96.50;;;;;;4974119;28;20401;-77
2022/08/20 09:25:52;;;;;;;1.05;0.75;;;13.40;96.80;;;;;;4991302;28;20737;-75
2022/08/20 09:28:19;;;;;;;1.25;0.85;;;13.40;96.80;;;;;;4991274;28;20417;-76
2022/08/20 09:30:47;;;;;;;1.27;1.00;;;13.20;97.30;;;;;;4991092;28;20522;-75
2022/08/20 09:33:15;;;;;;;2.80;1.80;;;13.00;97.90;;;;;;4991426;28;20400;-76
2022/08/20 09:35:44;;;;;;;1.83;1.50;;;12.80;98.20;;;;;;4991200;28;20380;-75
2022/08/20 09:38:12;;;;;;;2.90;2.40;;;12.70;99.90;;;;;;4978026;28;20391;-76
2022/08/20 09:40:39;;;;;;;1.67;1.50;;;12.60;99.90;;;;;;4973636;28;20927;-76
2022/08/20 09:43:07;;;;;;;1.80;1.70;;;12.50;99.90;;;;;;4992569;28;20385;-77
2022/08/20 09:45:36;;;;;;;2.20;1.55;;;12.30;99.90;;;;;;4991966;28;20413;-79
2022/08/20 09:48:03;;;;;;;2.63;1.75;;;12.10;99.90;;;;;;4993171;28;20823;-76
2022/08/20 09:50:33;;;;;;;5.82;5.28;;;11.90;99.90;;;;;;4976678;28;20435;-77
2022/08/20 09:53:05;;;;;;;5.90;5.07;;;11.80;99.90;;;;;;4993150;28;20415;-79
2022/08/20 09:55:43;;;;;;;4.85;4.10;;;11.70;99.90;;;;;;4991707;28;21040;-76
2022/08/20 09:58:37;;;;;;;5.80;5.10;;;11.70;99.90;;;;;;4992705;28;20468;-76
2022/08/20 10:01:15;;;;;;;6.90;6.07;;;11.60;99.90;;;;;;4976514;28;20405;-75
2022/08/20 10:03:46;;;;;;;6.20;5.00;;;11.50;99.90;;;;;;4976366;28;20449;-78
2022/08/20 10:06:15;;;;;;;5.18;3.78;;;11.40;99.90;;;;;;4993158;28;20776;-78
2022/08/20 10:08:43;;;;;;;7.53;6.20;;;11.30;99.90;;;;;;4992979;28;20442;-78
2022/08/20 10:11:10;;;;;;;5.97;5.32;;;11.30;99.90;;;;;;4974967;28;20400;-77
2022/08/20 10:13:38;;;;;;;5.88;5.20;;;11.20;99.90;;;;;;4992571;28;20779;-76
2022/08/20 10:16:05;;;;;;;8.05;5.82;;;11.10;99.90;;;;;;4992710;28;20865;-77
2022/08/20 10:18:36;;;;;;;3.47;3.17;;;11.10;99.90;;;;;;4992773;28;20434;-76
2022/08/20 10:21:08;;;;;;;4.45;3.53;;;11.00;99.90;;;;;;4991522;28;20388;-76
2022/08/20 10:23:35;;;;;;;4.00;3.60;;;11.00;99.90;;;;;;4990549;28;20843;-76
2022/08/20 10:26:02;;;;;;;2.58;2.38;;;11.00;99.90;;;;;;4991891;28;20381;-78
2022/08/20 10:28:29;;;;;;;2.70;1.50;;;11.10;99.90;;;;;;4992228;28;20381;-76
2022/08/20 10:30:56;;;;;;;3.05;2.67;;;11.10;99.90;;;;;;4992647;28;20461;-77
2022/08/20 10:33:27;;;;;;;4.35;3.13;;;11.10;99.90;;;;;;4992098;28;20400;-77
2022/08/20 10:35:54;;;;;;;3.13;2.30;;;11.10;99.90;;;;;;4989959;28;20381;-77
2022/08/20 10:38:21;;;;;;;1.77;1.60;;;11.10;99.90;;;;;;4992090;28;20396;-78
2022/08/20 10:40:48;;;;;;;2.45;1.08;;;11.10;99.90;;;;;;4992536;28;20383;-78
2022/08/20 10:43:15;;;;;;;1.60;1.30;;;11.00;99.90;;;;;;4991851;28;20380;-76
2022/08/20 10:45:42;;;;;;;1.13;1.02;;;11.00;99.90;;;;;;4992438;28;20718;-79
2022/08/20 10:48:09;;;;;;;1.08;0.90;;;10.90;99.90;;;;;;4992345;28;20385;-77
2022/08/20 10:50:36;;;;;;;1.15;0.93;;;10.80;99.90;;;;;;4992592;28;20396;-77
2022/08/20 10:53:03;;;;;;;1.17;1.08;;;10.80;99.90;;;;;;4992542;28;20404;-79
2022/08/20 10:55:30;;;;;;;1.48;1.23;;;10.70;99.90;;;;;;4992473;28;20480;-77
2022/08/20 10:57:57;;;;;;;2.78;1.90;;;10.60;99.90;;;;;;4995873;28;20417;-77
2022/08/20 11:00:25;;;;;;;2.60;1.90;;;10.60;99.90;;;;;;4996482;28;20553;-77
2022/08/20 11:02:52;;;;;;;1.80;1.70;;;10.60;99.90;;;;;;4961705;28;20436;-77
2022/08/20 11:05:19;;;;;;;2.05;1.50;;;10.60;99.90;;;;;;4996831;28;20389;-77
2022/08/20 11:07:46;;;;;;;1.30;1.20;;;10.60;99.90;;;;;;4995957;28;20377;-76
2022/08/20 11:10:13;;;;;;;0.95;0.90;;;10.60;99.90;;;;;;4995667;28;20413;-78
2022/08/20 11:12:41;;;;;;;1.65;1.10;;;10.70;99.90;;;;;;4988922;28;20421;-76
2022/08/20 11:15:08;;;;;;;1.48;1.20;;;10.80;99.90;;;;;;4988755;28;20377;-75
2022/08/20 11:17:39;;;;;;;3.55;2.22;;;10.80;99.90;;;;;;4995255;28;20915;-76
2022/08/20 11:20:07;;;;;;;6.53;3.70;;;10.90;99.90;;;;;;4994136;28;20388;-76
2022/08/20 11:22:35;;;;;;;2.00;1.50;;;10.90;99.90;;;;;;4994396;28;20481;-78
2022/08/20 11:25:04;;;;;;;5.67;2.70;;;10.90;99.90;;;;;;4994181;28;20903;-76
2022/08/20 11:27:34;;;;;;;8.20;4.15;;;10.90;99.90;;;;;;4994016;28;20376;-75
2022/08/20 11:30:03;;;;;;;11.50;5.88;;;10.90;99.90;;;;;;4994067;28;20392;-75
2022/08/20 11:32:30;;;;;;;15.02;7.60;;;10.80;99.90;;;;;;4993830;28;20412;-78
2022/08/20 11:34:58;;;;;;;9.48;4.60;;;10.80;99.90;;;;;;4994622;28;20464;-76
2022/08/20 11:37:26;;;;;;;3.03;2.10;;;10.70;99.90;;;;;;4994395;28;20460;-78
2022/08/20 11:39:53;;;;;;;2.00;1.20;;;10.70;99.90;;;;;;4993410;28;20376;-75
2022/08/20 11:42:20;;;;;;;2.27;1.50;;;10.60;99.90;;;;;;4993637;28;20381;-78
2022/08/20 11:44:47;;;;;;;2.55;1.55;;;10.60;99.90;;;;;;4993033;28;20400;-75
2022/08/20 11:47:26;;;;;;;13.88;6.18;;;10.60;99.90;;;;;;4993314;28;20457;-77
2022/08/20 11:49:59;;;;;;;15.02;8.27;;;10.60;99.90;;;;;;4992966;28;20964;-76
2022/08/20 11:52:27;;;;;;;4.63;3.10;;;10.60;99.90;;;;;;4993349;28;20780;-78
2022/08/20 11:54:56;;;;;;;15.32;10.73;;;10.70;99.90;;;;;;4993005;28;20500;-77
2022/08/20 11:57:28;;;;;;;17.75;10.38;;;10.70;99.90;;;;;;4975543;28;20404;-75
2022/08/20 11:59:57;;;;;;;14.75;9.35;;;10.60;99.90;;;;;;4992948;28;20400;-79
2022/08/20 12:02:25;;;;;;;6.25;3.83;;;10.50;99.90;;;;;;4993052;28;20381;-78
2022/08/20 12:04:53;;;;;;;4.05;2.67;;;10.50;99.90;;;;;;4975445;28;20776;-77
2022/08/20 12:07:25;;;;;;;2.73;1.80;;;10.50;99.90;;;;;;4992969;28;20881;-78
2022/08/20 12:09:52;;;;;;;1.38;1.27;;;10.00;99.90;;;;;;4976340;28;20385;-76
2022/08/20 12:12:22;;;;;;;1.20;1.10;;;10.40;99.90;;;;;;4992417;28;20909;-77
2022/08/20 12:14:52;;;;;;;1.40;1.00;;;10.40;99.90;;;;;;4990186;28;20522;-76
2022/08/20 12:17:22;;;;;;;1.23;1.00;;;10.40;99.90;;;;;;5002126;28;20388;-76
2022/08/20 12:19:51;;;;;;;1.13;1.00;;;10.40;99.90;;;;;;5012435;28;20377;-77
2022/08/20 12:22:19;;;;;;;1.23;1.13;;;10.50;99.90;;;;;;4999659;28;20381;-76
2022/08/20 12:24:46;;;;;;;1.90;1.60;;;10.50;99.90;;;;;;4996382;28;20468;-77
2022/08/20 12:27:20;;;;;;;2.10;1.95;;;10.50;99.90;;;;;;4994795;28;20388;-75
2022/08/20 12:29:51;;;;;;;5.70;3.67;;;10.60;99.90;;;;;;4994877;28;20756;-75
2022/08/20 12:32:19;;;;;;;2.43;2.23;;;10.50;99.90;;;;;;4998411;28;20466;-76
2022/08/20 12:34:46;;;;;;;1.90;1.58;;;10.60;99.90;;;;;;4980846;28;20475;-77
2022/08/20 12:37:17;;;;;;;0.90;0.80;;;10.60;99.90;;;;;;4992983;28;20401;-76
2022/08/20 12:39:47;;;;;;;0.70;0.50;;;10.80;99.90;;;;;;4992630;28;20392;-76
2022/08/20 12:42:14;;;;;;;0.95;0.70;;;11.00;99.90;;;;;;4992771;28;20452;-77
2022/08/20 12:44:43;;;;;;;2.95;2.67;;;11.20;99.90;;;;;;4992433;28;20790;-75
2022/08/20 12:47:12;;;;;;;0.70;0.70;;;11.40;99.90;;;;;;4992425;28;20373;-76
2022/08/20 12:49:44;;;;;;;1.20;1.10;;;11.60;99.90;;;;;;4992117;28;20744;-76
2022/08/20 12:52:12;;;;;;;0.70;0.70;;;11.70;99.90;;;;;;4991916;28;20409;-77
2022/08/20 12:54:40;;;;;;;1.20;1.13;;;11.70;99.90;;;;;;4992005;28;20384;-76
2022/08/20 12:57:13;;;;;;;0.90;0.90;;;11.80;99.90;;;;;;4992146;28;20381;-77
2022/08/20 12:59:40;;;;;;;0.55;0.45;;;11.90;99.90;;;;;;4991804;28;20468;-77
2022/08/20 13:02:07;;;;;;;0.50;0.50;;;11.90;99.90;;;;;;4991698;28;20393;-79
2022/08/20 13:04:34;;;;;;;0.50;0.50;;;12.00;99.90;;;;;;4991693;28;20401;-77
2022/08/20 13:07:02;;;;;;;0.60;0.60;;;12.00;99.90;;;;;;4991628;28;20899;-76
2022/08/20 13:09:30;;;;;;;0.93;0.70;;;12.00;99.90;;;;;;4991665;28;20427;-76